createdAt,value
2018-02-18T00:01:42.524Z,-2.29
2018-02-18T00:04:10.336Z,-2.38
2018-02-18T00:06:37.877Z,-2.32
2018-02-18T00:09:05.414Z,-2.46
2018-02-18T00:11:33.048Z,-2.45
2018-02-18T00:14:00.594Z,-2.45
2018-02-18T00:16:28.127Z,-2.36
2018-02-18T00:18:55.727Z,-2.19
2018-02-18T00:21:23.277Z,-2.09
2018-02-18T00:23:50.827Z,-2.12
2018-02-18T00:26:18.384Z,-2.14
2018-02-18T00:28:45.917Z,-2.10
2018-02-18T00:31:13.530Z,-2.25
2018-02-18T00:33:41.076Z,-2.46
2018-02-18T00:36:08.614Z,-2.14
2018-02-18T00:38:36.342Z,-2.16
2018-02-18T00:41:03.910Z,-2.04
2018-02-18T00:43:31.466Z,-2.30
2018-02-18T00:45:59.013Z,-2.51
2018-02-18T00:48:26.613Z,-2.24
2018-02-18T00:50:54.233Z,-2.22
2018-02-18T00:53:21.784Z,-2.33
2018-02-18T00:55:49.340Z,-2.53
2018-02-18T00:58:16.895Z,-2.54
2018-02-18T01:00:44.458Z,-2.58
2018-02-18T01:03:12.011Z,-2.63
2018-02-18T01:05:39.614Z,-2.58
2018-02-18T01:08:07.183Z,-2.57
2018-02-18T01:10:34.739Z,-2.50
2018-02-18T01:13:02.315Z,-2.54
2018-02-18T01:15:29.892Z,-2.53
2018-02-18T01:17:57.450Z,-2.19
2018-02-18T01:20:25.019Z,-2.19
2018-02-18T01:22:52.547Z,-2.20
2018-02-18T01:25:20.115Z,-2.23
2018-02-18T01:27:47.659Z,-2.26
2018-02-18T01:30:15.206Z,-2.22
2018-02-18T01:32:42.840Z,-2.18
2018-02-18T01:35:10.372Z,-2.36
2018-02-18T01:37:37.927Z,-2.46
2018-02-18T01:40:05.502Z,-2.56
2018-02-18T01:42:33.072Z,-2.11
2018-02-18T01:45:00.605Z,-2.31
2018-02-18T01:47:28.189Z,-2.12
2018-02-18T01:49:55.729Z,-2.40
2018-02-18T01:52:23.251Z,-2.23
2018-02-18T01:54:50.822Z,-2.43
2018-02-18T01:57:18.455Z,-2.55
2018-02-18T01:59:46.007Z,-2.54
2018-02-18T02:02:13.547Z,-2.57
2018-02-18T02:04:41.127Z,-2.38
2018-02-18T02:07:08.665Z,-2.43
2018-02-18T02:09:36.189Z,-2.29
2018-02-18T02:12:03.786Z,-2.33
2018-02-18T02:14:31.407Z,-2.36
2018-02-18T02:16:58.978Z,-2.45
2018-02-18T02:19:26.540Z,-2.39
2018-02-18T02:21:54.117Z,-2.35
2018-02-18T02:24:21.667Z,-2.04
2018-02-18T02:26:49.188Z,-2.08
2018-02-18T02:29:16.759Z,-2.10
2018-02-18T02:31:44.310Z,-2.12
2018-02-18T02:34:11.885Z,-2.19
2018-02-18T02:36:39.439Z,-2.25
2018-02-18T02:39:06.995Z,-2.21
2018-02-18T02:41:34.542Z,-2.26
2018-02-18T02:44:02.144Z,-2.27
2018-02-18T02:46:29.677Z,-2.26
2018-02-18T02:48:57.226Z,-2.30
2018-02-18T02:51:24.838Z,-2.35
2018-02-18T02:53:52.371Z,-2.45
2018-02-18T02:56:20.024Z,-2.22
2018-02-18T02:58:47.674Z,-2.32
2018-02-18T03:01:15.236Z,-2.31
2018-02-18T03:03:42.835Z,-2.40
2018-02-18T03:06:10.501Z,-2.50
2018-02-18T03:08:38.060Z,-2.58
2018-02-18T03:11:05.607Z,-2.29
2018-02-18T03:13:33.206Z,-2.49
2018-02-18T03:16:00.750Z,-2.63
2018-02-18T03:18:28.291Z,-2.60
2018-02-18T03:20:55.839Z,-2.67
2018-02-18T03:23:23.365Z,-2.68
2018-02-18T03:25:50.944Z,-2.39
2018-02-18T03:28:18.487Z,-2.57
2018-02-18T03:30:46.032Z,-2.61
2018-02-18T03:33:13.645Z,-2.64
2018-02-18T03:35:41.213Z,-2.46
2018-02-18T03:38:08.731Z,-2.64
2018-02-18T03:40:36.331Z,-2.62
2018-02-18T03:43:03.895Z,-2.59
2018-02-18T03:45:31.442Z,-2.50
2018-02-18T03:47:58.981Z,-2.55
2018-02-18T03:50:26.581Z,-2.53
2018-02-18T03:52:54.141Z,-2.62
2018-02-18T03:55:21.671Z,-2.56
2018-02-18T03:57:49.231Z,-2.48
2018-02-18T04:00:16.813Z,-2.64
2018-02-18T04:02:44.354Z,-2.76
2018-02-18T04:05:11.927Z,-2.79
2018-02-18T04:07:39.482Z,-2.95
2018-02-18T04:10:07.021Z,-3.04
2018-02-18T04:12:34.771Z,-2.93
2018-02-18T04:15:02.338Z,-2.81
2018-02-18T04:17:29.878Z,-3.01
2018-02-18T04:19:57.481Z,-3.08
2018-02-18T04:22:25.034Z,-3.05
2018-02-18T04:24:52.633Z,-2.99
2018-02-18T04:27:20.192Z,-3.07
2018-02-18T04:29:47.748Z,-3.13
2018-02-18T04:32:15.286Z,-3.01
2018-02-18T04:34:42.836Z,-2.97
2018-02-18T04:37:10.387Z,-2.95
2018-02-18T04:39:37.979Z,-3.05
2018-02-18T04:42:05.522Z,-3.09
2018-02-18T04:44:33.082Z,-3.15
2018-02-18T04:47:00.631Z,-3.23
2018-02-18T04:49:28.188Z,-3.26
2018-02-18T04:51:55.833Z,-3.32
2018-02-18T04:54:23.396Z,-3.33
2018-02-18T04:56:50.966Z,-3.28
2018-02-18T04:59:18.527Z,-3.35
2018-02-18T05:01:46.052Z,-3.45
2018-02-18T05:04:13.748Z,-3.54
2018-02-18T05:06:41.306Z,-3.36
2018-02-18T05:09:08.907Z,-3.36
2018-02-18T05:11:36.435Z,-3.35
2018-02-18T05:14:03.993Z,-3.38
2018-02-18T05:16:31.600Z,-3.46
2018-02-18T05:18:59.147Z,-3.51
2018-02-18T05:21:26.711Z,-3.55
2018-02-18T05:23:54.314Z,-3.38
2018-02-18T05:26:21.875Z,-3.49
2018-02-18T05:28:49.412Z,-3.39
2018-02-18T05:31:16.984Z,-3.27
2018-02-18T05:33:44.578Z,-3.27
2018-02-18T05:36:12.136Z,-3.26
2018-02-18T05:38:39.744Z,-3.32
2018-02-18T05:41:08.226Z,-3.33
2018-02-18T05:43:35.788Z,-3.37
2018-02-18T05:46:03.381Z,-3.29
2018-02-18T05:48:30.911Z,-3.35
2018-02-18T05:50:58.506Z,-3.24
2018-02-18T05:53:26.103Z,-3.28
2018-02-18T05:55:53.647Z,-3.17
2018-02-18T05:58:21.185Z,-3.22
2018-02-18T06:00:48.752Z,-3.22
2018-02-18T06:03:16.296Z,-3.25
2018-02-18T06:05:43.898Z,-3.07
2018-02-18T06:08:11.455Z,-3.11
2018-02-18T06:10:39.012Z,-3.01
2018-02-18T06:13:06.598Z,-2.85
2018-02-18T06:15:34.176Z,-2.90
2018-02-18T06:18:01.710Z,-2.94
2018-02-18T06:20:29.242Z,-2.91
2018-02-18T06:22:56.787Z,-2.93
2018-02-18T06:25:24.541Z,-3.07
2018-02-18T06:27:52.167Z,-3.15
2018-02-18T06:30:19.703Z,-3.16
2018-02-18T06:32:47.300Z,-3.22
2018-02-18T06:35:14.857Z,-3.19
2018-02-18T06:37:42.413Z,-3.13
2018-02-18T06:40:10.045Z,-3.08
2018-02-18T06:42:37.713Z,-3.01
2018-02-18T06:45:05.259Z,-2.91
2018-02-18T06:47:32.836Z,-3.16
2018-02-18T06:50:00.385Z,-3.07
2018-02-18T06:52:27.945Z,-3.03
2018-02-18T06:54:55.522Z,-2.85
2018-02-18T06:57:23.068Z,-2.78
2018-02-18T06:59:50.708Z,-2.84
2018-02-18T07:02:18.255Z,-2.61
2018-02-18T07:04:45.798Z,-2.66
2018-02-18T07:07:13.378Z,-2.52
2018-02-18T07:09:40.929Z,-2.50
2018-02-18T07:12:08.525Z,-2.39
2018-02-18T07:14:36.075Z,-2.34
2018-02-18T07:17:03.604Z,-2.32
2018-02-18T07:19:31.172Z,-2.35
2018-02-18T07:21:58.724Z,-2.40
2018-02-18T07:24:26.260Z,-2.31
2018-02-18T07:26:53.827Z,-2.37
2018-02-18T07:29:21.407Z,-2.30
2018-02-18T07:31:48.970Z,-2.43
2018-02-18T07:34:17.546Z,-2.37
2018-02-18T07:36:45.495Z,-2.40
2018-02-18T07:39:13.026Z,-2.33
2018-02-18T07:41:40.575Z,-2.27
2018-02-18T07:44:08.148Z,-2.26
2018-02-18T07:46:35.667Z,-2.15
2018-02-18T07:49:03.244Z,-2.17
2018-02-18T07:51:30.795Z,-2.04
2018-02-18T07:53:58.389Z,-1.94
2018-02-18T07:56:25.967Z,-1.77
2018-02-18T07:58:53.516Z,-1.67
2018-02-18T08:01:21.107Z,-1.75
2018-02-18T08:03:48.688Z,-1.66
2018-02-18T08:06:16.264Z,-1.57
2018-02-18T08:08:43.800Z,-1.54
2018-02-18T08:11:11.413Z,-1.57
2018-02-18T08:13:38.970Z,-1.50
2018-02-18T08:16:06.498Z,-1.44
2018-02-18T08:18:34.066Z,-1.39
2018-02-18T08:21:01.628Z,-1.39
2018-02-18T08:23:29.225Z,-1.28
2018-02-18T08:25:56.763Z,-1.27
2018-02-18T08:28:24.313Z,-1.16
2018-02-18T08:30:51.868Z,-1.12
2018-02-18T08:33:19.436Z,-0.99
2018-02-18T08:35:46.964Z,-0.82
2018-02-18T08:38:14.685Z,-0.81
2018-02-18T08:40:42.219Z,-0.72
2018-02-18T08:43:09.767Z,-0.66
2018-02-18T08:45:37.388Z,-0.54
2018-02-18T08:48:04.932Z,-0.44
2018-02-18T08:50:32.513Z,-0.35
2018-02-18T08:53:00.434Z,-0.32
2018-02-18T08:55:28.022Z,-0.21
2018-02-18T08:57:55.611Z,-0.18
2018-02-18T09:00:23.145Z,-0.19
2018-02-18T09:02:50.742Z,-0.14
2018-02-18T09:05:18.331Z,-0.04
2018-02-18T09:07:45.851Z,0.04
2018-02-18T09:10:13.424Z,0.13
2018-02-18T09:12:41.011Z,0.23
2018-02-18T09:15:08.565Z,0.27
2018-02-18T09:17:36.102Z,0.27
2018-02-18T09:20:03.661Z,0.36
2018-02-18T09:22:31.206Z,0.33
2018-02-18T09:24:58.792Z,0.42
2018-02-18T09:27:26.318Z,0.44
2018-02-18T09:29:53.833Z,0.53
2018-02-18T09:32:21.399Z,0.58
2018-02-18T09:34:48.987Z,0.70
2018-02-18T09:37:16.528Z,0.71
2018-02-18T09:39:44.052Z,0.89
2018-02-18T09:42:11.616Z,1.19
2018-02-18T09:44:39.160Z,1.02
2018-02-18T09:47:06.684Z,1.10
2018-02-18T09:49:34.266Z,1.22
2018-02-18T09:52:01.793Z,1.14
2018-02-18T09:54:29.316Z,1.33
2018-02-18T09:56:56.868Z,1.40
2018-02-18T09:59:24.398Z,1.46
2018-02-18T10:01:51.945Z,1.68
2018-02-18T10:04:19.510Z,1.78
2018-02-18T10:06:47.077Z,1.99
2018-02-18T10:09:14.630Z,1.97
2018-02-18T10:11:42.191Z,1.91
2018-02-18T10:14:09.757Z,2.03
2018-02-18T10:16:37.297Z,2.19
2018-02-18T10:19:04.893Z,2.13
2018-02-18T10:21:32.431Z,2.27
2018-02-18T10:24:00.037Z,2.20
2018-02-18T10:26:27.617Z,2.27
2018-02-18T10:28:55.127Z,2.42
2018-02-18T10:31:22.667Z,2.47
2018-02-18T10:33:50.300Z,2.50
2018-02-18T10:36:17.869Z,2.61
2018-02-18T10:38:45.606Z,2.73
2018-02-18T10:41:13.171Z,2.63
2018-02-18T10:43:40.828Z,2.76
2018-02-18T10:46:08.436Z,3.00
2018-02-18T10:48:35.974Z,2.91
2018-02-18T10:51:03.515Z,2.91
2018-02-18T10:53:31.131Z,2.90
2018-02-18T10:55:58.689Z,2.82
2018-02-18T10:58:26.207Z,2.97
2018-02-18T11:00:53.842Z,3.22
2018-02-18T11:03:21.363Z,3.23
2018-02-18T11:05:49.139Z,3.27
2018-02-18T11:08:16.665Z,3.26
2018-02-18T11:10:44.206Z,3.27
2018-02-18T11:13:11.785Z,3.25
2018-02-18T11:15:39.305Z,3.54
2018-02-18T11:18:06.820Z,3.74
2018-02-18T11:20:34.375Z,3.60
2018-02-18T11:23:01.951Z,3.77
2018-02-18T11:25:29.483Z,3.78
2018-02-18T11:27:57.081Z,3.89
2018-02-18T11:30:24.634Z,3.94
2018-02-18T11:32:52.254Z,3.92
2018-02-18T11:35:19.804Z,4.01
2018-02-18T11:37:47.335Z,4.07
2018-02-18T11:40:14.935Z,4.18
2018-02-18T11:42:42.557Z,4.24
2018-02-18T11:45:10.090Z,4.01
2018-02-18T11:47:37.654Z,4.39
2018-02-18T11:50:05.216Z,4.38
2018-02-18T11:52:32.794Z,4.59
2018-02-18T11:55:00.337Z,4.60
2018-02-18T11:57:27.875Z,4.72
2018-02-18T11:59:55.453Z,4.66
2018-02-18T12:02:23.063Z,4.69
2018-02-18T12:04:50.584Z,4.47
2018-02-18T12:07:18.148Z,4.79
2018-02-18T12:09:45.754Z,4.72
2018-02-18T12:12:13.292Z,4.74
2018-02-18T12:14:40.841Z,5.09
2018-02-18T12:17:08.421Z,5.16
2018-02-18T12:19:36.091Z,5.18
2018-02-18T12:22:03.697Z,5.22
2018-02-18T12:24:31.355Z,5.42
2018-02-18T12:26:58.882Z,5.45
2018-02-18T12:29:26.414Z,5.34
2018-02-18T12:31:54.007Z,5.28
2018-02-18T12:34:21.534Z,5.10
2018-02-18T12:36:49.066Z,5.18
2018-02-18T12:39:16.644Z,5.37
2018-02-18T12:41:44.166Z,5.25
2018-02-18T12:44:11.724Z,5.47
2018-02-18T12:46:39.277Z,5.66
2018-02-18T12:49:06.800Z,5.64
2018-02-18T12:51:34.422Z,5.71
2018-02-18T12:54:01.987Z,5.94
2018-02-18T12:56:29.544Z,6.08
2018-02-18T12:58:57.197Z,6.01
2018-02-18T13:01:26.594Z,6.21
2018-02-18T13:03:54.864Z,6.23
2018-02-18T13:06:22.498Z,6.65
2018-02-18T13:08:50.020Z,6.62
2018-02-18T13:11:17.587Z,6.56
2018-02-18T13:13:45.165Z,6.34
2018-02-18T13:16:12.736Z,6.02
2018-02-18T13:18:40.276Z,5.72
2018-02-18T13:21:07.834Z,5.55
2018-02-18T13:23:35.379Z,5.49
2018-02-18T13:26:02.947Z,5.42
2018-02-18T13:28:30.492Z,5.65
2018-02-18T13:30:58.119Z,5.80
2018-02-18T13:33:25.690Z,5.72
2018-02-18T13:35:53.232Z,5.91
2018-02-18T13:38:20.783Z,6.08
2018-02-18T13:40:48.444Z,6.25
2018-02-18T13:43:16.005Z,6.01
2018-02-18T13:45:43.573Z,6.12
2018-02-18T13:48:11.106Z,6.37
2018-02-18T13:50:38.678Z,6.60
2018-02-18T13:53:06.382Z,6.12
2018-02-18T13:55:34.055Z,6.23
2018-02-18T13:58:01.680Z,6.51
2018-02-18T14:00:29.285Z,6.03
2018-02-18T14:02:56.828Z,6.30
2018-02-18T14:05:24.376Z,6.13
2018-02-18T14:07:51.935Z,5.85
2018-02-18T14:10:19.482Z,6.03
2018-02-18T14:12:47.043Z,6.14
2018-02-18T14:15:14.654Z,6.47
2018-02-18T14:17:42.199Z,6.13
2018-02-18T14:20:09.769Z,6.39
2018-02-18T14:22:37.417Z,6.26
2018-02-18T14:25:04.991Z,6.15
2018-02-18T14:27:32.540Z,5.97
2018-02-18T14:30:00.137Z,5.82
2018-02-18T14:32:27.686Z,5.97
2018-02-18T14:34:55.213Z,6.10
2018-02-18T14:37:22.903Z,6.38
2018-02-18T14:39:50.462Z,6.36
2018-02-18T14:42:29.847Z,6.66
2018-02-18T14:45:09.409Z,6.56
2018-02-18T14:47:48.813Z,6.28
2018-02-18T14:50:28.189Z,6.18
2018-02-18T14:53:07.593Z,6.25
2018-02-18T14:58:36.963Z,5.87
2018-02-18T15:01:04.688Z,5.97
2018-02-18T15:03:32.271Z,6.25
2018-02-18T15:05:59.888Z,5.81
2018-02-18T15:08:27.420Z,5.84
2018-02-18T15:10:55.072Z,5.69
2018-02-18T15:13:22.651Z,5.75
2018-02-18T15:15:50.210Z,5.61
2018-02-18T15:18:17.825Z,5.68
2018-02-18T15:20:45.389Z,5.67
2018-02-18T15:23:13.044Z,5.70
2018-02-18T15:25:40.581Z,5.76
2018-02-18T15:28:08.476Z,5.78
2018-02-18T15:30:36.171Z,5.67
2018-02-18T15:33:03.745Z,5.70
2018-02-18T15:35:31.284Z,5.46
2018-02-18T15:37:59.038Z,5.46
2018-02-18T15:40:26.619Z,5.48
2018-02-18T15:42:54.176Z,5.17
2018-02-18T15:45:21.712Z,5.05
2018-02-18T15:47:49.333Z,4.92
2018-02-18T15:50:16.887Z,4.83
2018-02-18T15:52:44.456Z,4.85
2018-02-18T15:55:12.003Z,4.97
2018-02-18T15:57:39.774Z,5.13
2018-02-18T16:00:07.415Z,5.24
2018-02-18T16:02:35.012Z,5.12
2018-02-18T16:05:02.582Z,4.95
2018-02-18T16:07:30.143Z,4.90
2018-02-18T16:09:57.733Z,4.89
2018-02-18T16:12:25.268Z,4.74
2018-02-18T16:14:52.877Z,4.69
2018-02-18T16:17:20.454Z,4.66
2018-02-18T16:19:48.058Z,4.63
2018-02-18T16:22:15.781Z,4.47
2018-02-18T16:24:43.411Z,4.30
2018-02-18T16:27:10.979Z,4.15
2018-02-18T16:29:38.519Z,4.11
2018-02-18T16:32:06.511Z,3.75
2018-02-18T16:34:34.110Z,3.62
2018-02-18T16:37:01.681Z,3.44
2018-02-18T16:39:29.249Z,3.35
2018-02-18T16:41:56.790Z,3.41
2018-02-18T16:44:24.405Z,3.34
2018-02-18T16:46:51.943Z,3.18
2018-02-18T16:49:19.459Z,3.01
2018-02-18T16:51:47.142Z,2.87
2018-02-18T16:54:14.724Z,2.65
2018-02-18T16:56:42.322Z,2.48
2018-02-18T16:59:09.867Z,2.43
2018-02-18T17:01:37.399Z,2.35
2018-02-18T17:04:04.987Z,2.18
2018-02-18T17:06:32.572Z,1.94
2018-02-18T17:09:00.462Z,1.76
2018-02-18T17:11:28.037Z,1.99
2018-02-18T17:13:55.667Z,1.94
2018-02-18T17:16:23.300Z,1.98
2018-02-18T17:18:50.921Z,1.83
2018-02-18T17:21:18.539Z,1.67
2018-02-18T17:23:46.170Z,1.46
2018-02-18T17:26:13.744Z,1.32
2018-02-18T17:28:41.323Z,1.34
2018-02-18T17:31:08.860Z,1.19
2018-02-18T17:33:36.406Z,1.00
2018-02-18T17:36:03.981Z,0.91
2018-02-18T17:38:31.521Z,0.79
2018-02-18T17:40:59.040Z,0.67
2018-02-18T17:43:26.594Z,0.57
2018-02-18T17:45:54.328Z,0.52
2018-02-18T17:48:21.903Z,0.41
2018-02-18T17:50:49.469Z,0.34
2018-02-18T17:53:17.001Z,0.36
2018-02-18T17:55:44.559Z,0.38
2018-02-18T17:58:12.087Z,0.45
2018-02-18T18:00:39.647Z,0.46
2018-02-18T18:03:07.214Z,0.48
2018-02-18T18:05:34.730Z,0.51
2018-02-18T18:08:02.282Z,0.61
2018-02-18T18:10:29.961Z,0.67
2018-02-18T18:12:57.516Z,0.40
2018-02-18T18:15:25.053Z,0.13
2018-02-18T18:17:52.656Z,0.15
2018-02-18T18:20:20.195Z,0.05
2018-02-18T18:22:47.809Z,-0.17
2018-02-18T18:25:15.359Z,-0.25
2018-02-18T18:27:42.901Z,-0.24
2018-02-18T18:30:10.477Z,-0.30
2018-02-18T18:32:38.056Z,-0.36
2018-02-18T18:35:05.800Z,-0.26
2018-02-18T18:37:33.349Z,0.03
2018-02-18T18:40:00.961Z,0.07
2018-02-18T18:42:28.524Z,-0.08
2018-02-18T18:44:56.820Z,-0.15
2018-02-18T18:47:25.057Z,-0.34
2018-02-18T18:49:52.671Z,-0.44
2018-02-18T18:52:20.191Z,-0.51
2018-02-18T18:54:47.763Z,-0.56
2018-02-18T18:57:15.361Z,-0.49
2018-02-18T18:59:42.942Z,-0.49
2018-02-18T19:02:10.483Z,-0.43
2018-02-18T19:04:38.075Z,-0.50
2018-02-18T19:07:05.629Z,-0.59
2018-02-18T19:09:33.198Z,-0.60
2018-02-18T19:12:00.859Z,-0.43
2018-02-18T19:14:28.494Z,-0.58
2018-02-18T19:16:56.081Z,-0.65
2018-02-18T19:19:23.659Z,-0.71
2018-02-18T19:21:51.184Z,-0.71
2018-02-18T19:24:18.710Z,-0.68
2018-02-18T19:26:46.272Z,-0.56
2018-02-18T19:29:13.827Z,-0.65
2018-02-18T19:31:41.381Z,-0.73
2018-02-18T19:34:08.956Z,-0.71
2018-02-18T19:36:36.503Z,-0.59
2018-02-18T19:39:04.116Z,-0.67
2018-02-18T19:41:31.647Z,-0.79
2018-02-18T19:43:59.216Z,-0.80
2018-02-18T19:46:27.323Z,-0.79
2018-02-18T19:48:54.915Z,-0.77
2018-02-18T19:51:22.508Z,-0.78
2018-02-18T19:53:50.995Z,-0.60
2018-02-18T19:56:18.575Z,-0.38
2018-02-18T19:58:46.170Z,-0.24
2018-02-18T20:01:13.692Z,-0.08
2018-02-18T20:03:41.274Z,-0.11
2018-02-18T20:06:08.877Z,-0.10
2018-02-18T20:08:36.445Z,0.13
2018-02-18T20:11:03.988Z,0.12
2018-02-18T20:13:31.590Z,0.21
2018-02-18T20:15:59.160Z,0.08
2018-02-18T20:18:26.697Z,0.13
2018-02-18T20:20:54.286Z,0.06
2018-02-18T20:23:21.851Z,0.14
2018-02-18T20:25:49.389Z,0.12
2018-02-18T20:28:16.931Z,0.11
2018-02-18T20:30:44.496Z,0.16
2018-02-18T20:33:12.116Z,0.23
2018-02-18T20:35:39.653Z,0.26
2018-02-18T20:38:07.180Z,0.20
2018-02-18T20:40:34.780Z,0.19
2018-02-18T20:43:02.327Z,0.28
2018-02-18T20:45:29.863Z,0.16
2018-02-18T20:47:57.512Z,0.15
2018-02-18T20:50:25.041Z,0.29
2018-02-18T20:52:52.576Z,0.25
2018-02-18T20:55:20.116Z,0.28
2018-02-18T20:57:47.659Z,0.26
2018-02-18T21:00:15.505Z,0.23
2018-02-18T21:02:43.210Z,0.10
2018-02-18T21:05:10.748Z,0.04
2018-02-18T21:07:38.338Z,0.01
2018-02-18T21:10:05.879Z,-0.04
2018-02-18T21:12:33.444Z,-0.12
2018-02-18T21:15:01.048Z,-0.04
2018-02-18T21:17:28.600Z,-0.09
2018-02-18T21:19:56.152Z,-0.07
2018-02-18T21:22:23.730Z,-0.12
2018-02-18T21:24:51.256Z,0.00
2018-02-18T21:27:18.847Z,-0.03
2018-02-18T21:29:46.379Z,0.04
2018-02-18T21:32:13.929Z,0.07
2018-02-18T21:34:42.378Z,0.05
2018-02-18T21:37:09.972Z,0.06
2018-02-18T21:39:37.523Z,0.04
2018-02-18T21:42:05.107Z,0.01
2018-02-18T21:44:32.646Z,-0.05
2018-02-18T21:47:00.181Z,-0.07
2018-02-18T21:49:27.762Z,-0.01
2018-02-18T21:51:55.316Z,0.04
2018-02-18T21:54:22.882Z,0.00
2018-02-18T21:56:50.419Z,-0.05
2018-02-18T21:59:18.067Z,0.08
2018-02-18T22:01:45.621Z,0.00
2018-02-18T22:04:13.145Z,-0.08
2018-02-18T22:06:40.745Z,0.02
2018-02-18T22:09:08.233Z,-0.03
2018-02-18T22:11:35.789Z,0.04
2018-02-18T22:14:03.329Z,0.00
2018-02-18T22:16:30.875Z,0.01
2018-02-18T22:18:58.423Z,0.02
2018-02-18T22:21:25.994Z,0.05
2018-02-18T22:23:53.557Z,-0.01
2018-02-18T22:26:21.102Z,0.03
2018-02-18T22:28:48.673Z,0.14
2018-02-18T22:31:16.239Z,0.24
2018-02-18T22:33:43.768Z,0.24
2018-02-18T22:36:11.340Z,0.19
2018-02-18T22:38:38.941Z,0.12
2018-02-18T22:41:06.503Z,0.14
2018-02-18T22:43:34.031Z,0.15
2018-02-18T22:46:01.576Z,0.25
2018-02-18T22:48:29.102Z,0.06
2018-02-18T22:50:56.683Z,0.10
2018-02-18T22:53:24.214Z,0.00
2018-02-18T22:55:51.750Z,0.04
2018-02-18T22:58:19.319Z,0.17
2018-02-18T23:00:47.023Z,0.16
2018-02-18T23:03:14.539Z,0.27
2018-02-18T23:05:47.756Z,0.19
2018-02-18T23:08:15.338Z,0.27
2018-02-18T23:10:42.867Z,0.32
2018-02-18T23:13:10.432Z,0.31
2018-02-18T23:15:37.963Z,0.39
2018-02-18T23:18:05.562Z,0.49
2018-02-18T23:20:44.906Z,0.53
2018-02-18T23:23:12.459Z,0.61
2018-02-18T23:25:40.036Z,0.59
2018-02-18T23:28:07.577Z,0.47
2018-02-18T23:30:35.104Z,0.58
2018-02-18T23:33:02.669Z,0.59
2018-02-18T23:35:30.203Z,0.64
2018-02-18T23:37:57.719Z,0.71
2018-02-18T23:40:25.292Z,0.64
2018-02-18T23:42:52.812Z,0.56
2018-02-18T23:45:21.190Z,0.47
2018-02-18T23:47:48.918Z,0.50
2018-02-18T23:50:16.454Z,0.25
2018-02-18T23:52:43.994Z,0.41
2018-02-18T23:55:11.551Z,0.33
2018-02-18T23:57:39.091Z,0.49
